createdAt,value
2019-06-08T00:02:50.372Z,100663.50
2019-06-08T00:07:52.839Z,100688.33
2019-06-08T00:12:55.297Z,100680.70
2019-06-08T00:17:59.436Z,100681.06
2019-06-08T00:23:00.233Z,100680.48
2019-06-08T00:28:02.690Z,100700.63
2019-06-08T00:33:05.147Z,100699.47
2019-06-08T00:38:07.608Z,100730.42
2019-06-08T00:43:10.117Z,100716.08
2019-06-08T00:48:12.573Z,100725.11
2019-06-08T00:53:15.114Z,100723.47
2019-06-08T00:58:18.075Z,100752.65
2019-06-08T01:03:20.048Z,100751.48
2019-06-08T01:08:23.812Z,100747.08
2019-06-08T01:13:25.008Z,100755.81
2019-06-08T01:18:27.524Z,100791.62
2019-06-08T01:23:29.911Z,100794.65
2019-06-08T01:28:32.392Z,100798.80
2019-06-08T01:33:34.963Z,100805.69
2019-06-08T01:38:37.423Z,100815.12
2019-06-08T01:43:39.890Z,100846.27
2019-06-08T01:48:42.357Z,100857.48
2019-06-08T01:53:44.830Z,100853.13
2019-06-08T01:58:47.289Z,100851.28
2019-06-08T02:03:49.746Z,100839.38
2019-06-08T02:08:52.204Z,100851.79
2019-06-08T02:13:54.661Z,100867.37
2019-06-08T02:18:57.175Z,100864.61
2019-06-08T02:23:59.633Z,100845.19
2019-06-08T02:29:02.158Z,100857.05
2019-06-08T02:34:05.902Z,100842.55
2019-06-08T02:39:07.079Z,100863.94
2019-06-08T02:44:09.550Z,100867.28
2019-06-08T02:49:12.011Z,100880.50
2019-06-08T02:54:14.472Z,100889.65
2019-06-08T02:59:16.960Z,100891.44
2019-06-08T03:04:19.436Z,100892.89
2019-06-08T03:09:21.906Z,100882.88
2019-06-08T03:14:27.001Z,100893.59
2019-06-08T03:19:31.207Z,100893.78
2019-06-08T03:24:32.502Z,100881.31
2019-06-08T03:29:35.080Z,100898.86
2019-06-08T03:34:45.821Z,100901.27
2019-06-08T03:39:41.219Z,100920.78
2019-06-08T03:44:42.879Z,100905.38
2019-06-08T03:49:54.874Z,100909.53
2019-06-08T03:54:47.111Z,100938.63
2019-06-08T03:59:49.309Z,100955.04
2019-06-08T04:04:51.776Z,100963.95
2019-06-08T04:09:54.250Z,100969.20
2019-06-08T04:14:56.710Z,100979.90
2019-06-08T04:20:10.619Z,100970.80
2019-06-08T04:25:01.649Z,100978.90
2019-06-08T04:30:06.769Z,100982.51
2019-06-08T04:35:09.446Z,100989.42
2019-06-08T04:40:11.850Z,101003.66
2019-06-08T04:45:14.324Z,101014.27
2019-06-08T04:50:23.518Z,101027.31
2019-06-08T04:55:19.361Z,101036.89
2019-06-08T05:00:21.834Z,101039.14
2019-06-08T05:05:24.294Z,101037.50
2019-06-08T05:10:26.751Z,101053.55
2019-06-08T05:15:29.223Z,101056.06
2019-06-08T05:20:38.940Z,101072.31
2019-06-08T05:25:34.220Z,101087.39
2019-06-08T05:30:36.683Z,101091.79
2019-06-08T05:35:39.472Z,101105.20
2019-06-08T05:40:41.624Z,101110.51
2019-06-08T05:45:44.095Z,101121.30
2019-06-08T05:51:01.418Z,101114.11
2019-06-08T05:55:50.180Z,101121.44
2019-06-08T06:00:51.500Z,101124.97
2019-06-08T06:05:53.965Z,101134.31
2019-06-08T06:10:56.428Z,101138.37
2019-06-08T06:15:58.898Z,101141.27
2019-06-08T06:21:10.777Z,101145.95
2019-06-08T06:26:03.854Z,101153.97
2019-06-08T06:31:06.298Z,101165.46
2019-06-08T06:36:08.771Z,101165.91
2019-06-08T06:41:11.224Z,101170.28
2019-06-08T06:46:13.848Z,101177.55
2019-06-08T06:51:25.640Z,101188.02
2019-06-08T06:56:18.795Z,101192.58
2019-06-08T07:01:21.262Z,101195.08
2019-06-08T07:06:23.736Z,101205.59
2019-06-08T07:11:26.208Z,101207.00
2019-06-08T07:16:28.669Z,101208.59
2019-06-08T07:21:41.207Z,101215.20
2019-06-08T07:26:33.630Z,101227.35
2019-06-08T07:31:36.087Z,101229.05
2019-06-08T07:36:38.562Z,101218.89
2019-06-08T07:41:41.025Z,101216.80
2019-06-08T07:46:43.500Z,101222.53
2019-06-08T07:51:58.764Z,101227.53
2019-06-08T07:56:49.818Z,101225.14
2019-06-08T08:01:51.893Z,101232.27
2019-06-08T08:06:54.581Z,101224.88
2019-06-08T08:11:57.037Z,101224.16
2019-06-08T08:16:59.109Z,101229.92
2019-06-08T08:22:16.338Z,101229.17
2019-06-08T08:27:03.931Z,101231.55
2019-06-08T08:32:07.559Z,101228.04
2019-06-08T08:37:09.650Z,101241.20
2019-06-08T08:42:10.744Z,101244.80
2019-06-08T08:47:13.208Z,101267.05
2019-06-08T08:52:17.475Z,101253.04
2019-06-08T08:57:18.268Z,101247.53
2019-06-08T09:02:21.362Z,101249.97
2019-06-08T09:07:23.023Z,101254.94
2019-06-08T09:12:27.587Z,101234.88
2019-06-08T09:17:28.089Z,101259.75
2019-06-08T09:22:31.222Z,101225.14
2019-06-08T09:27:32.869Z,101233.73
2019-06-08T09:32:38.008Z,101257.28
2019-06-08T09:37:37.849Z,101257.72
2019-06-08T09:42:40.266Z,101251.03
2019-06-08T09:47:42.720Z,101245.64
2019-06-08T09:52:47.725Z,101259.42
2019-06-08T09:57:48.541Z,101240.42
2019-06-08T10:02:50.122Z,101254.16
2019-06-08T10:07:52.587Z,101234.25
2019-06-08T10:12:56.975Z,101227.88
2019-06-08T10:17:58.826Z,101214.52
2019-06-08T10:23:03.266Z,101226.91
2019-06-08T10:28:07.768Z,101228.91
2019-06-08T10:33:07.115Z,101226.77
2019-06-08T10:38:11.655Z,101234.63
2019-06-08T10:43:11.363Z,101243.11
2019-06-08T10:48:12.324Z,101242.88
2019-06-08T10:53:16.657Z,101245.92
2019-06-08T10:58:19.351Z,101234.06
2019-06-08T11:03:19.849Z,101241.97
2019-06-08T11:08:22.314Z,101242.66
2019-06-08T11:13:24.782Z,101245.47
2019-06-08T11:18:28.678Z,101228.70
2019-06-08T11:23:29.735Z,101232.91
2019-06-08T11:28:32.187Z,101234.91
2019-06-08T11:33:34.650Z,101239.10
2019-06-08T11:38:38.229Z,101242.72
2019-06-08T11:43:39.622Z,101240.78
2019-06-08T11:48:42.108Z,101238.40
2019-06-08T11:53:44.609Z,101236.45
2019-06-08T11:58:48.576Z,101236.84
2019-06-08T12:03:49.501Z,101238.37
2019-06-08T12:08:52.003Z,101240.28
2019-06-08T12:13:54.661Z,101236.53
2019-06-08T12:18:58.637Z,101230.75
2019-06-08T12:23:59.607Z,101227.20
2019-06-08T12:29:02.115Z,101222.61
2019-06-08T12:34:05.184Z,101228.18
2019-06-08T12:39:07.903Z,101224.98
2019-06-08T12:44:12.294Z,101228.73
2019-06-08T12:49:13.210Z,101234.84
2019-06-08T12:54:14.470Z,101237.36
2019-06-08T12:59:22.445Z,101230.83
2019-06-08T13:04:23.361Z,101223.22
2019-06-08T13:09:21.882Z,101223.22
2019-06-08T13:14:24.360Z,101236.03
2019-06-08T13:19:27.619Z,101229.45
2019-06-08T13:24:29.286Z,101236.56
2019-06-08T13:29:31.741Z,101233.35
2019-06-08T13:34:34.373Z,101231.23
2019-06-08T13:39:38.765Z,101232.63
2019-06-08T13:44:39.315Z,101222.36
2019-06-08T13:49:41.776Z,101233.98
2019-06-08T13:54:44.266Z,101237.82
2019-06-08T13:59:48.438Z,101226.41
2019-06-08T14:04:49.285Z,101222.20
2019-06-08T14:09:51.697Z,101221.07
2019-06-08T14:14:54.181Z,101231.90
2019-06-08T14:19:58.694Z,101222.45
2019-06-08T14:24:59.125Z,101225.86
2019-06-08T14:30:01.588Z,101225.98
2019-06-08T14:35:04.064Z,101228.84
2019-06-08T14:40:08.151Z,101230.06
2019-06-08T14:45:10.894Z,101234.70
2019-06-08T14:50:11.467Z,101237.27
2019-06-08T14:55:13.928Z,101239.88
2019-06-08T15:00:18.840Z,101237.73
2019-06-08T15:05:19.920Z,101232.80
2019-06-08T15:10:21.745Z,101219.27
2019-06-08T15:15:23.969Z,101216.55
2019-06-08T15:20:26.435Z,101214.19
2019-06-08T15:25:30.008Z,101221.06
2019-06-08T15:30:32.779Z,101222.89
2019-06-08T15:35:33.843Z,101221.64
2019-06-08T15:40:37.911Z,101214.39
2019-06-08T15:45:38.801Z,101209.00
2019-06-08T15:50:41.269Z,101204.50
2019-06-08T15:55:43.738Z,101198.76
2019-06-08T16:00:46.189Z,101192.76
2019-06-08T16:05:48.653Z,101202.66
2019-06-08T16:10:51.136Z,101199.59
2019-06-08T16:15:53.654Z,101200.84
2019-06-08T16:20:56.103Z,101199.76
2019-06-08T16:25:58.587Z,101196.61
2019-06-08T16:31:01.066Z,101193.78
2019-06-08T16:36:03.557Z,101196.09
2019-06-08T16:41:06.030Z,101191.70
2019-06-08T16:46:08.503Z,101196.53
2019-06-08T16:51:10.975Z,101208.66
2019-06-08T16:56:13.565Z,101209.73
2019-06-08T17:01:16.025Z,101206.94
2019-06-08T17:06:18.503Z,101203.77
2019-06-08T17:11:20.978Z,101212.17
2019-06-08T17:16:23.451Z,101208.66
2019-06-08T17:21:25.902Z,101208.78
2019-06-08T17:26:28.390Z,101208.07
2019-06-08T17:31:31.085Z,101208.71
2019-06-08T17:36:34.289Z,101205.58
2019-06-08T17:41:36.099Z,101209.89
2019-06-08T17:46:39.144Z,101202.05
2019-06-08T17:51:41.795Z,101211.47
2019-06-08T17:56:43.515Z,101213.22
2019-06-08T18:01:45.717Z,101211.25
2019-06-08T18:06:48.176Z,101215.48
2019-06-08T18:11:50.646Z,101212.39
2019-06-08T18:16:53.113Z,101218.09
2019-06-08T18:22:02.923Z,101213.52
2019-06-08T18:26:58.549Z,101219.59
2019-06-08T18:32:00.525Z,101217.29
2019-06-08T18:37:03.057Z,101226.62
2019-06-08T18:42:05.463Z,101225.34
2019-06-08T18:47:07.941Z,101228.41
2019-06-08T18:52:10.439Z,101232.36
2019-06-08T18:57:12.909Z,101236.38
2019-06-08T19:02:17.897Z,101232.00
2019-06-08T19:07:18.153Z,101239.63
2019-06-08T19:12:20.362Z,101242.35
2019-06-08T19:17:22.827Z,101248.70
2019-06-08T19:22:25.304Z,101262.22
2019-06-08T19:27:27.835Z,101266.12
2019-06-08T19:32:30.238Z,101273.00
2019-06-08T19:37:32.924Z,101280.18
2019-06-08T19:42:40.592Z,101291.98
2019-06-08T19:47:38.389Z,101293.76
2019-06-08T19:52:43.754Z,101305.61
2019-06-08T19:57:43.350Z,101310.23
2019-06-08T20:02:47.970Z,101312.11
2019-06-08T20:07:47.599Z,101319.67
2019-06-08T20:12:50.956Z,101332.66
2019-06-08T20:17:52.617Z,101339.83
2019-06-08T20:22:55.099Z,101340.48
2019-06-08T20:27:58.737Z,101349.41
2019-06-08T20:33:00.062Z,101360.52
2019-06-08T20:38:02.551Z,101352.59
2019-06-08T20:43:07.031Z,101354.14
2019-06-08T20:48:07.521Z,101358.53
2019-06-08T20:53:10.038Z,101366.64
2019-06-08T20:58:12.466Z,101373.56
2019-06-08T21:03:17.406Z,101369.80
2019-06-08T21:08:17.568Z,101372.37
2019-06-08T21:13:19.890Z,101376.11
2019-06-08T21:18:22.354Z,101370.48
2019-06-08T21:23:24.824Z,101378.65
2019-06-08T21:28:28.013Z,101377.34
2019-06-08T21:33:29.772Z,101379.39
2019-06-08T21:38:32.239Z,101373.18
2019-06-08T21:43:37.287Z,101371.41
2019-06-08T21:48:38.150Z,101369.12
2019-06-08T21:53:39.654Z,101372.20
2019-06-08T21:58:42.117Z,101374.48
2019-06-08T22:03:47.046Z,101378.67
2019-06-08T22:08:48.145Z,101371.72
2019-06-08T22:13:51.139Z,101370.40
2019-06-08T22:18:52.981Z,101377.52
2019-06-08T22:23:55.862Z,101383.44
2019-06-08T22:28:59.282Z,101386.23
2019-06-08T22:34:02.089Z,101385.17
2019-06-08T22:39:02.700Z,101387.44
2019-06-08T22:44:04.389Z,101377.20
2019-06-08T22:49:08.003Z,101385.84
2019-06-08T22:54:09.385Z,101392.77
2019-06-08T22:59:11.861Z,101395.05
2019-06-08T23:04:14.375Z,101384.44
2019-06-08T23:09:17.999Z,101376.96
2019-06-08T23:14:19.310Z,101377.25
2019-06-08T23:19:21.784Z,101373.33
2019-06-08T23:24:24.247Z,101375.09
2019-06-08T23:29:27.368Z,101373.69
2019-06-08T23:34:29.178Z,101369.42
2019-06-08T23:39:31.654Z,101357.83
2019-06-08T23:44:34.119Z,101362.03
2019-06-08T23:49:38.019Z,101374.20
2019-06-08T23:54:39.046Z,101373.95
2019-06-08T23:59:41.497Z,101373.64
